KOCW/OCW METAR and TAF weather

Enter ICAO airport designator
Station Type Date Time Source
KOCW METAR 2019/02/22 23:20 UTC NOAA

KOCW 222320Z AUTO 02006KT 10SM -RA OVC031 06/06 A3038 RMK AO2 T00630056


Station Type Date Time Source
KOCW Decoded METAR 2019/02/22 23:20 UTC NOAA

Washington, Warren Field Airport, NC, United States (KOCW) 35-34-14N 077-02-59W
Feb 22, 2019 - 06:20 PM EST / 2019.02.22 2320 UTC
Wind: from the NNE (020 degrees) at 7 MPH (6 KT):0
Visibility: 10 mile(s):0
Sky conditions: overcast
Weather: light rain
Temperature: 43.3 F (6.3 C)
Dew Point: 42.1 F (5.6 C)
Relative Humidity: 95%
Pressure (altimeter): 30.38 in. Hg (1028 hPa)
ob: KOCW 222320Z AUTO 02006KT 10SM -RA OVC031 06/06 A3038 RMK AO2 T00630056
cycle: 23

Station Type Date Time Source
KOCW TAF UTC NOAA

Error!


Example: see airport list